sensor_id;sensor_type;location;lat;lon;timestamp;P1;durP1;ratioP1;P2;durP2;ratioP2
6955;SDS011;50345;51.136;16.886;2023-05-13T00:00:01;10.50;;;4.97;;
6955;SDS011;50345;51.136;16.886;2023-05-13T00:02:26;6.90;;;5.43;;
6955;SDS011;50345;51.136;16.886;2023-05-13T00:04:52;10.00;;;5.93;;
6955;SDS011;50345;51.136;16.886;2023-05-13T00:07:17;6.43;;;5.30;;
6955;SDS011;50345;51.136;16.886;2023-05-13T00:09:43;9.67;;;6.17;;
6955;SDS011;50345;51.136;16.886;2023-05-13T00:12:09;7.33;;;5.30;;
6955;SDS011;50345;51.136;16.886;2023-05-13T00:14:34;6.50;;;5.90;;
6955;SDS011;50345;51.136;16.886;2023-05-13T00:17:00;6.00;;;5.07;;
6955;SDS011;50345;51.136;16.886;2023-05-13T00:19:28;6.18;;;5.20;;
6955;SDS011;50345;51.136;16.886;2023-05-13T00:21:54;5.88;;;5.28;;
6955;SDS011;50345;51.136;16.886;2023-05-13T00:24:20;6.57;;;5.97;;
6955;SDS011;50345;51.136;16.886;2023-05-13T00:26:45;8.10;;;5.80;;
6955;SDS011;50345;51.136;16.886;2023-05-13T00:29:11;5.60;;;5.10;;
6955;SDS011;50345;51.136;16.886;2023-05-13T00:31:37;10.53;;;5.67;;
6955;SDS011;50345;51.136;16.886;2023-05-13T00:34:02;5.73;;;4.70;;
6955;SDS011;50345;51.136;16.886;2023-05-13T00:36:28;6.57;;;5.57;;
6955;SDS011;50345;51.136;16.886;2023-05-13T00:38:54;8.13;;;6.33;;
6955;SDS011;50345;51.136;16.886;2023-05-13T00:41:20;10.93;;;6.13;;
6955;SDS011;50345;51.136;16.886;2023-05-13T00:43:46;7.85;;;5.85;;
6955;SDS011;50345;51.136;16.886;2023-05-13T00:46:12;9.23;;;4.87;;
6955;SDS011;50345;51.136;16.886;2023-05-13T00:48:38;6.60;;;6.00;;
6955;SDS011;50345;51.136;16.886;2023-05-13T00:51:04;8.97;;;5.87;;
6955;SDS011;50345;51.136;16.886;2023-05-13T00:53:31;6.90;;;5.40;;
6955;SDS011;50345;51.136;16.886;2023-05-13T00:55:57;5.60;;;5.05;;
6955;SDS011;50345;51.136;16.886;2023-05-13T00:58:23;6.60;;;6.00;;
6955;SDS011;50345;51.136;16.886;2023-05-13T01:03:33;5.70;;;4.65;;
6955;SDS011;50345;51.136;16.886;2023-05-13T01:06:12;7.03;;;5.78;;
6955;SDS011;50345;51.136;16.886;2023-05-13T01:08:46;6.72;;;6.15;;
6955;SDS011;50345;51.136;16.886;2023-05-13T01:11:40;7.18;;;6.47;;
6955;SDS011;50345;51.136;16.886;2023-05-13T01:14:10;6.20;;;5.18;;
6955;SDS011;50345;51.136;16.886;2023-05-13T01:16:44;8.27;;;6.28;;
6955;SDS011;50345;51.136;16.886;2023-05-13T01:19:25;6.22;;;5.47;;
6955;SDS011;50345;51.136;16.886;2023-05-13T01:22:16;8.77;;;5.50;;
6955;SDS011;50345;51.136;16.886;2023-05-13T01:24:42;6.33;;;5.07;;
6955;SDS011;50345;51.136;16.886;2023-05-13T01:27:07;5.70;;;5.20;;
6955;SDS011;50345;51.136;16.886;2023-05-13T01:29:33;7.57;;;5.73;;
6955;SDS011;50345;51.136;16.886;2023-05-13T01:31:59;7.72;;;6.10;;
6955;SDS011;50345;51.136;16.886;2023-05-13T01:34:26;7.15;;;5.05;;
6955;SDS011;50345;51.136;16.886;2023-05-13T01:36:52;9.35;;;5.60;;
6955;SDS011;50345;51.136;16.886;2023-05-13T01:39:18;7.30;;;5.57;;
6955;SDS011;50345;51.136;16.886;2023-05-13T01:41:44;6.13;;;4.90;;
6955;SDS011;50345;51.136;16.886;2023-05-13T01:44:10;5.87;;;5.30;;
6955;SDS011;50345;51.136;16.886;2023-05-13T01:46:38;11.30;;;6.30;;
6955;SDS011;50345;51.136;16.886;2023-05-13T01:49:04;7.53;;;5.97;;
6955;SDS011;50345;51.136;16.886;2023-05-13T01:51:31;8.52;;;5.50;;
6955;SDS011;50345;51.136;16.886;2023-05-13T01:53:57;6.43;;;5.40;;
6955;SDS011;50345;51.136;16.886;2023-05-13T01:56:22;10.73;;;5.70;;
6955;SDS011;50345;51.136;16.886;2023-05-13T01:58:48;6.77;;;5.70;;
6955;SDS011;50345;51.136;16.886;2023-05-13T02:01:14;7.43;;;6.20;;
6955;SDS011;50345;51.136;16.886;2023-05-13T02:03:40;5.90;;;5.17;;
6955;SDS011;50345;51.136;16.886;2023-05-13T02:06:05;6.83;;;5.57;;
6955;SDS011;50345;51.136;16.886;2023-05-13T02:08:31;7.27;;;5.27;;
6955;SDS011;50345;51.136;16.886;2023-05-13T02:10:57;7.73;;;6.07;;
6955;SDS011;50345;51.136;16.886;2023-05-13T02:13:23;6.18;;;5.68;;
6955;SDS011;50345;51.136;16.886;2023-05-13T02:15:49;7.03;;;6.07;;
6955;SDS011;50345;51.136;16.886;2023-05-13T02:18:15;9.43;;;5.43;;
6955;SDS011;50345;51.136;16.886;2023-05-13T02:20:41;10.43;;;6.27;;
6955;SDS011;50345;51.136;16.886;2023-05-13T02:23:06;6.37;;;5.67;;
6955;SDS011;50345;51.136;16.886;2023-05-13T02:25:32;6.13;;;5.57;;
6955;SDS011;50345;51.136;16.886;2023-05-13T02:27:58;7.07;;;6.38;;
6955;SDS011;50345;51.136;16.886;2023-05-13T02:30:24;9.37;;;6.20;;
6955;SDS011;50345;51.136;16.886;2023-05-13T02:32:51;9.77;;;6.90;;
6955;SDS011;50345;51.136;16.886;2023-05-13T02:35:17;8.70;;;6.43;;
6955;SDS011;50345;51.136;16.886;2023-05-13T02:37:43;7.37;;;6.20;;
6955;SDS011;50345;51.136;16.886;2023-05-13T02:40:09;6.97;;;6.27;;
6955;SDS011;50345;51.136;16.886;2023-05-13T02:42:34;9.25;;;6.28;;
6955;SDS011;50345;51.136;16.886;2023-05-13T02:45:00;6.83;;;6.03;;
6955;SDS011;50345;51.136;16.886;2023-05-13T02:47:26;7.73;;;6.33;;
6955;SDS011;50345;51.136;16.886;2023-05-13T02:49:53;7.40;;;6.70;;
6955;SDS011;50345;51.136;16.886;2023-05-13T02:52:20;7.53;;;6.63;;
6955;SDS011;50345;51.136;16.886;2023-05-13T02:54:45;8.53;;;6.57;;
6955;SDS011;50345;51.136;16.886;2023-05-13T02:57:11;8.23;;;7.00;;
6955;SDS011;50345;51.136;16.886;2023-05-13T02:59:36;7.90;;;6.73;;
6955;SDS011;50345;51.136;16.886;2023-05-13T03:02:02;7.50;;;6.87;;
6955;SDS011;50345;51.136;16.886;2023-05-13T03:04:27;8.20;;;6.80;;
6955;SDS011;50345;51.136;16.886;2023-05-13T03:06:53;7.37;;;6.73;;
6955;SDS011;50345;51.136;16.886;2023-05-13T03:09:19;10.23;;;6.80;;
6955;SDS011;50345;51.136;16.886;2023-05-13T03:11:44;6.97;;;6.00;;
6955;SDS011;50345;51.136;16.886;2023-05-13T03:14:10;8.83;;;6.43;;
6955;SDS011;50345;51.136;16.886;2023-05-13T03:16:36;7.83;;;6.70;;
6955;SDS011;50345;51.136;16.886;2023-05-13T03:19:01;8.13;;;6.80;;
6955;SDS011;50345;51.136;16.886;2023-05-13T03:21:27;6.83;;;5.80;;
6955;SDS011;50345;51.136;16.886;2023-05-13T03:23:52;7.77;;;6.90;;
6955;SDS011;50345;51.136;16.886;2023-05-13T03:26:18;8.13;;;6.13;;
6955;SDS011;50345;51.136;16.886;2023-05-13T03:28:44;10.52;;;7.25;;
6955;SDS011;50345;51.136;16.886;2023-05-13T03:31:10;6.90;;;6.30;;
6955;SDS011;50345;51.136;16.886;2023-05-13T03:33:36;8.82;;;6.50;;
6955;SDS011;50345;51.136;16.886;2023-05-13T03:36:03;7.90;;;7.10;;
6955;SDS011;50345;51.136;16.886;2023-05-13T03:38:29;6.65;;;6.03;;
6955;SDS011;50345;51.136;16.886;2023-05-13T03:40:55;6.25;;;5.65;;
6955;SDS011;50345;51.136;16.886;2023-05-13T03:43:20;8.70;;;6.20;;
6955;SDS011;50345;51.136;16.886;2023-05-13T03:45:46;8.00;;;6.47;;
6955;SDS011;50345;51.136;16.886;2023-05-13T03:48:12;11.10;;;7.68;;
6955;SDS011;50345;51.136;16.886;2023-05-13T03:50:39;7.50;;;6.05;;
6955;SDS011;50345;51.136;16.886;2023-05-13T03:53:04;7.03;;;6.33;;
6955;SDS011;50345;51.136;16.886;2023-05-13T03:55:31;6.82;;;5.63;;
6955;SDS011;50345;51.136;16.886;2023-05-13T03:57:56;6.47;;;5.80;;
6955;SDS011;50345;51.136;16.886;2023-05-13T04:00:22;6.67;;;6.07;;
6955;SDS011;50345;51.136;16.886;2023-05-13T04:02:47;7.50;;;6.90;;
6955;SDS011;50345;51.136;16.886;2023-05-13T04:05:13;9.50;;;6.73;;
6955;SDS011;50345;51.136;16.886;2023-05-13T04:07:39;7.73;;;6.93;;
6955;SDS011;50345;51.136;16.886;2023-05-13T04:10:05;8.35;;;6.10;;
6955;SDS011;50345;51.136;16.886;2023-05-13T04:12:31;7.45;;;5.82;;
6955;SDS011;50345;51.136;16.886;2023-05-13T04:14:57;8.17;;;7.17;;
6955;SDS011;50345;51.136;16.886;2023-05-13T04:17:23;10.15;;;7.13;;
6955;SDS011;50345;51.136;16.886;2023-05-13T04:19:52;9.40;;;6.63;;
6955;SDS011;50345;51.136;16.886;2023-05-13T04:22:18;8.07;;;6.40;;
6955;SDS011;50345;51.136;16.886;2023-05-13T04:24:45;12.68;;;6.60;;
6955;SDS011;50345;51.136;16.886;2023-05-13T04:27:10;9.20;;;5.80;;
6955;SDS011;50345;51.136;16.886;2023-05-13T04:29:36;7.60;;;6.47;;
6955;SDS011;50345;51.136;16.886;2023-05-13T04:32:02;7.10;;;6.43;;
6955;SDS011;50345;51.136;16.886;2023-05-13T04:34:27;8.07;;;7.27;;
6955;SDS011;50345;51.136;16.886;2023-05-13T04:36:53;7.00;;;5.97;;
6955;SDS011;50345;51.136;16.886;2023-05-13T04:39:18;7.53;;;6.00;;
6955;SDS011;50345;51.136;16.886;2023-05-13T04:41:44;7.27;;;6.57;;
6955;SDS011;50345;51.136;16.886;2023-05-13T04:44:09;7.33;;;6.50;;
6955;SDS011;50345;51.136;16.886;2023-05-13T04:46:35;6.17;;;5.53;;
6955;SDS011;50345;51.136;16.886;2023-05-13T04:49:04;7.45;;;6.13;;
6955;SDS011;50345;51.136;16.886;2023-05-13T04:51:30;7.10;;;6.38;;
6955;SDS011;50345;51.136;16.886;2023-05-13T04:53:56;10.80;;;6.57;;
6955;SDS011;50345;51.136;16.886;2023-05-13T04:56:22;7.90;;;6.13;;
6955;SDS011;50345;51.136;16.886;2023-05-13T04:58:48;12.27;;;5.87;;
6955;SDS011;50345;51.136;16.886;2023-05-13T05:01:13;9.63;;;6.40;;
6955;SDS011;50345;51.136;16.886;2023-05-13T05:03:39;7.17;;;6.47;;
6955;SDS011;50345;51.136;16.886;2023-05-13T05:06:05;7.23;;;6.13;;
6955;SDS011;50345;51.136;16.886;2023-05-13T05:08:30;9.60;;;5.80;;
6955;SDS011;50345;51.136;16.886;2023-05-13T05:10:56;7.73;;;5.60;;
6955;SDS011;50345;51.136;16.886;2023-05-13T05:13:21;7.30;;;6.60;;
6955;SDS011;50345;51.136;16.886;2023-05-13T05:15:47;6.13;;;5.53;;
6955;SDS011;50345;51.136;16.886;2023-05-13T05:18:13;6.67;;;5.87;;
6955;SDS011;50345;51.136;16.886;2023-05-13T05:20:38;8.03;;;7.33;;
6955;SDS011;50345;51.136;16.886;2023-05-13T05:23:04;6.90;;;6.07;;
6955;SDS011;50345;51.136;16.886;2023-05-13T05:25:31;9.65;;;5.88;;
6955;SDS011;50345;51.136;16.886;2023-05-13T05:27:56;9.20;;;5.70;;
6955;SDS011;50345;51.136;16.886;2023-05-13T05:30:22;6.70;;;5.57;;
6955;SDS011;50345;51.136;16.886;2023-05-13T05:32:48;6.53;;;5.93;;
6955;SDS011;50345;51.136;16.886;2023-05-13T05:35:13;8.20;;;5.80;;
6955;SDS011;50345;51.136;16.886;2023-05-13T05:37:40;10.85;;;6.30;;
6955;SDS011;50345;51.136;16.886;2023-05-13T05:40:06;10.80;;;6.53;;
6955;SDS011;50345;51.136;16.886;2023-05-13T05:42:32;6.32;;;5.72;;
6955;SDS011;50345;51.136;16.886;2023-05-13T05:44:58;6.80;;;5.97;;
6955;SDS011;50345;51.136;16.886;2023-05-13T05:47:23;7.27;;;6.10;;
6955;SDS011;50345;51.136;16.886;2023-05-13T05:49:49;7.07;;;6.43;;
6955;SDS011;50345;51.136;16.886;2023-05-13T05:52:15;7.13;;;6.00;;
6955;SDS011;50345;51.136;16.886;2023-05-13T05:54:40;8.67;;;5.70;;
6955;SDS011;50345;51.136;16.886;2023-05-13T05:57:06;8.33;;;6.73;;
6955;SDS011;50345;51.136;16.886;2023-05-13T05:59:31;7.90;;;6.83;;
6955;SDS011;50345;51.136;16.886;2023-05-13T06:01:57;8.70;;;7.53;;
6955;SDS011;50345;51.136;16.886;2023-05-13T06:04:23;8.20;;;6.73;;
6955;SDS011;50345;51.136;16.886;2023-05-13T06:06:48;8.47;;;6.93;;
6955;SDS011;50345;51.136;16.886;2023-05-13T06:09:14;7.47;;;6.60;;
6955;SDS011;50345;51.136;16.886;2023-05-13T06:11:40;7.27;;;6.57;;
6955;SDS011;50345;51.136;16.886;2023-05-13T06:14:05;7.33;;;6.23;;
6955;SDS011;50345;51.136;16.886;2023-05-13T06:16:31;8.27;;;6.13;;
6955;SDS011;50345;51.136;16.886;2023-05-13T06:18:56;9.40;;;5.80;;
6955;SDS011;50345;51.136;16.886;2023-05-13T06:21:22;11.67;;;7.27;;
6955;SDS011;50345;51.136;16.886;2023-05-13T06:23:47;10.70;;;8.87;;
6955;SDS011;50345;51.136;16.886;2023-05-13T06:26:13;9.60;;;8.70;;
6955;SDS011;50345;51.136;16.886;2023-05-13T06:28:38;12.27;;;8.73;;
6955;SDS011;50345;51.136;16.886;2023-05-13T06:31:04;8.50;;;6.70;;
6955;SDS011;50345;51.136;16.886;2023-05-13T06:33:29;7.67;;;6.43;;
6955;SDS011;50345;51.136;16.886;2023-05-13T06:35:55;9.80;;;8.80;;
6955;SDS011;50345;51.136;16.886;2023-05-13T06:38:21;7.30;;;6.50;;
6955;SDS011;50345;51.136;16.886;2023-05-13T06:40:46;6.90;;;6.17;;
6955;SDS011;50345;51.136;16.886;2023-05-13T06:43:12;8.70;;;7.40;;
6955;SDS011;50345;51.136;16.886;2023-05-13T06:45:40;9.45;;;7.63;;
6955;SDS011;50345;51.136;16.886;2023-05-13T06:48:06;8.77;;;6.45;;
6955;SDS011;50345;51.136;16.886;2023-05-13T06:50:32;12.47;;;6.93;;
6955;SDS011;50345;51.136;16.886;2023-05-13T06:52:57;11.63;;;6.80;;
6955;SDS011;50345;51.136;16.886;2023-05-13T06:55:23;8.73;;;7.20;;
6955;SDS011;50345;51.136;16.886;2023-05-13T06:57:49;8.90;;;8.00;;
6955;SDS011;50345;51.136;16.886;2023-05-13T07:00:14;8.77;;;7.73;;
6955;SDS011;50345;51.136;16.886;2023-05-13T07:02:40;7.25;;;6.13;;
6955;SDS011;50345;51.136;16.886;2023-05-13T07:05:07;8.37;;;7.47;;
6955;SDS011;50345;51.136;16.886;2023-05-13T07:07:33;8.45;;;7.05;;
6955;SDS011;50345;51.136;16.886;2023-05-13T07:09:58;7.13;;;6.33;;
6955;SDS011;50345;51.136;16.886;2023-05-13T07:12:24;7.47;;;6.77;;
6955;SDS011;50345;51.136;16.886;2023-05-13T07:14:50;8.30;;;7.50;;
6955;SDS011;50345;51.136;16.886;2023-05-13T07:17:15;7.07;;;6.37;;
6955;SDS011;50345;51.136;16.886;2023-05-13T07:19:41;8.87;;;7.40;;
6955;SDS011;50345;51.136;16.886;2023-05-13T07:22:07;10.13;;;8.07;;
6955;SDS011;50345;51.136;16.886;2023-05-13T07:24:32;8.83;;;7.50;;
6955;SDS011;50345;51.136;16.886;2023-05-13T07:26:58;8.30;;;7.57;;
6955;SDS011;50345;51.136;16.886;2023-05-13T07:29:23;7.33;;;6.60;;
6955;SDS011;50345;51.136;16.886;2023-05-13T07:31:49;8.27;;;7.17;;
6955;SDS011;50345;51.136;16.886;2023-05-13T07:34:15;10.43;;;8.00;;
6955;SDS011;50345;51.136;16.886;2023-05-13T07:36:40;7.77;;;6.97;;
6955;SDS011;50345;51.136;16.886;2023-05-13T07:39:06;11.23;;;8.97;;
6955;SDS011;50345;51.136;16.886;2023-05-13T07:41:33;10.02;;;7.72;;
6955;SDS011;50345;51.136;16.886;2023-05-13T07:43:59;9.00;;;7.60;;
6955;SDS011;50345;51.136;16.886;2023-05-13T07:46:24;13.30;;;8.50;;
6955;SDS011;50345;51.136;16.886;2023-05-13T07:48:50;9.00;;;8.17;;
6955;SDS011;50345;51.136;16.886;2023-05-13T07:51:15;7.70;;;6.47;;
6955;SDS011;50345;51.136;16.886;2023-05-13T07:53:42;8.55;;;7.65;;
6955;SDS011;50345;51.136;16.886;2023-05-13T07:56:09;8.82;;;7.28;;
6955;SDS011;50345;51.136;16.886;2023-05-13T07:58:34;9.60;;;7.87;;
6955;SDS011;50345;51.136;16.886;2023-05-13T08:01:01;9.88;;;8.88;;
6955;SDS011;50345;51.136;16.886;2023-05-13T08:03:28;9.15;;;7.85;;
6955;SDS011;50345;51.136;16.886;2023-05-13T08:05:53;11.33;;;7.17;;
6955;SDS011;50345;51.136;16.886;2023-05-13T08:08:19;10.53;;;8.00;;
6955;SDS011;50345;51.136;16.886;2023-05-13T08:10:44;9.70;;;8.33;;
6955;SDS011;50345;51.136;16.886;2023-05-13T08:13:10;8.23;;;7.43;;
6955;SDS011;50345;51.136;16.886;2023-05-13T08:15:36;8.93;;;7.67;;
6955;SDS011;50345;51.136;16.886;2023-05-13T08:18:02;8.18;;;6.93;;
6955;SDS011;50345;51.136;16.886;2023-05-13T08:20:27;9.73;;;8.37;;
6955;SDS011;50345;51.136;16.886;2023-05-13T08:22:56;9.07;;;7.70;;
6955;SDS011;50345;51.136;16.886;2023-05-13T08:25:22;7.63;;;6.93;;
6955;SDS011;50345;51.136;16.886;2023-05-13T08:27:48;9.53;;;7.80;;
6955;SDS011;50345;51.136;16.886;2023-05-13T08:30:14;7.53;;;6.63;;
6955;SDS011;50345;51.136;16.886;2023-05-13T08:32:39;8.33;;;6.80;;
6955;SDS011;50345;51.136;16.886;2023-05-13T08:35:05;7.23;;;6.37;;
6955;SDS011;50345;51.136;16.886;2023-05-13T08:37:31;6.73;;;6.20;;
6955;SDS011;50345;51.136;16.886;2023-05-13T08:39:56;8.80;;;5.90;;
6955;SDS011;50345;51.136;16.886;2023-05-13T08:42:24;7.77;;;6.37;;
6955;SDS011;50345;51.136;16.886;2023-05-13T08:44:54;7.20;;;6.10;;
6955;SDS011;50345;51.136;16.886;2023-05-13T08:49:51;8.50;;;6.50;;
6955;SDS011;50345;51.136;16.886;2023-05-13T08:52:17;10.93;;;6.83;;
6955;SDS011;50345;51.136;16.886;2023-05-13T08:54:44;7.30;;;6.70;;
6955;SDS011;50345;51.136;16.886;2023-05-13T08:57:11;12.20;;;5.87;;
6955;SDS011;50345;51.136;16.886;2023-05-13T08:59:37;7.30;;;5.90;;
6955;SDS011;50345;51.136;16.886;2023-05-13T09:02:03;5.50;;;5.10;;
6955;SDS011;50345;51.136;16.886;2023-05-13T09:04:29;5.87;;;5.17;;
6955;SDS011;50345;51.136;16.886;2023-05-13T09:06:56;5.97;;;5.30;;
6955;SDS011;50345;51.136;16.886;2023-05-13T09:09:22;6.03;;;5.23;;
6955;SDS011;50345;51.136;16.886;2023-05-13T09:11:48;6.33;;;5.70;;
6955;SDS011;50345;51.136;16.886;2023-05-13T09:14:17;5.43;;;4.50;;
6955;SDS011;50345;51.136;16.886;2023-05-13T09:16:43;5.73;;;5.23;;
6955;SDS011;50345;51.136;16.886;2023-05-13T09:19:09;5.17;;;4.40;;
6955;SDS011;50345;51.136;16.886;2023-05-13T09:21:35;5.47;;;4.97;;
6955;SDS011;50345;51.136;16.886;2023-05-13T09:24:04;5.10;;;4.57;;
6955;SDS011;50345;51.136;16.886;2023-05-13T09:26:34;5.93;;;3.90;;
6955;SDS011;50345;51.136;16.886;2023-05-13T09:29:13;5.33;;;4.83;;
6955;SDS011;50345;51.136;16.886;2023-05-13T09:31:40;4.63;;;4.03;;
6955;SDS011;50345;51.136;16.886;2023-05-13T09:34:06;4.40;;;4.03;;
6955;SDS011;50345;51.136;16.886;2023-05-13T09:36:32;7.30;;;6.67;;
6955;SDS011;50345;51.136;16.886;2023-05-13T09:38:58;6.80;;;6.20;;
6955;SDS011;50345;51.136;16.886;2023-05-13T09:41:25;7.23;;;6.63;;
6955;SDS011;50345;51.136;16.886;2023-05-13T09:43:51;9.30;;;6.17;;
6955;SDS011;50345;51.136;16.886;2023-05-13T09:46:17;5.80;;;4.67;;
6955;SDS011;50345;51.136;16.886;2023-05-13T09:48:42;6.27;;;5.00;;
6955;SDS011;50345;51.136;16.886;2023-05-13T09:51:08;5.90;;;5.17;;
6955;SDS011;50345;51.136;16.886;2023-05-13T09:53:34;6.10;;;4.63;;
6955;SDS011;50345;51.136;16.886;2023-05-13T09:55:59;5.20;;;4.40;;
6955;SDS011;50345;51.136;16.886;2023-05-13T09:58:26;7.20;;;5.10;;
6955;SDS011;50345;51.136;16.886;2023-05-13T10:00:53;5.37;;;4.50;;
6955;SDS011;50345;51.136;16.886;2023-05-13T10:03:19;4.63;;;4.20;;
6955;SDS011;50345;51.136;16.886;2023-05-13T10:05:45;4.67;;;4.27;;
6955;SDS011;50345;51.136;16.886;2023-05-13T10:08:13;5.73;;;4.60;;
6955;SDS011;50345;51.136;16.886;2023-05-13T10:10:40;10.00;;;5.27;;
6955;SDS011;50345;51.136;16.886;2023-05-13T10:13:11;6.83;;;4.67;;
6955;SDS011;50345;51.136;16.886;2023-05-13T10:15:56;6.40;;;5.90;;
6955;SDS011;50345;51.136;16.886;2023-05-13T10:18:22;10.70;;;5.13;;
6955;SDS011;50345;51.136;16.886;2023-05-13T10:20:48;8.53;;;4.00;;
6955;SDS011;50345;51.136;16.886;2023-05-13T10:23:17;6.50;;;4.70;;
6955;SDS011;50345;51.136;16.886;2023-05-13T10:25:46;5.40;;;4.83;;
6955;SDS011;50345;51.136;16.886;2023-05-13T10:28:12;4.30;;;3.90;;
6955;SDS011;50345;51.136;16.886;2023-05-13T10:30:38;6.13;;;4.60;;
6955;SDS011;50345;51.136;16.886;2023-05-13T10:33:05;9.50;;;5.50;;
6955;SDS011;50345;51.136;16.886;2023-05-13T10:35:31;5.30;;;4.03;;
6955;SDS011;50345;51.136;16.886;2023-05-13T10:45:47;5.17;;;3.40;;
6955;SDS011;50345;51.136;16.886;2023-05-13T10:48:15;6.03;;;3.60;;
6955;SDS011;50345;51.136;16.886;2023-05-13T10:51:01;8.43;;;3.70;;
6955;SDS011;50345;51.136;16.886;2023-05-13T10:53:30;5.00;;;4.00;;
6955;SDS011;50345;51.136;16.886;2023-05-13T10:56:00;5.50;;;3.60;;
6955;SDS011;50345;51.136;16.886;2023-05-13T10:58:32;8.20;;;7.40;;
6955;SDS011;50345;51.136;16.886;2023-05-13T11:04:03;10.87;;;8.70;;
6955;SDS011;50345;51.136;16.886;2023-05-13T11:06:33;10.20;;;7.83;;
6955;SDS011;50345;51.136;16.886;2023-05-13T11:09:02;3.83;;;3.40;;
6955;SDS011;50345;51.136;16.886;2023-05-13T11:11:30;4.03;;;3.73;;
6955;SDS011;50345;51.136;16.886;2023-05-13T11:16:23;5.23;;;3.53;;
6955;SDS011;50345;51.136;16.886;2023-05-13T11:18:50;4.40;;;4.07;;
6955;SDS011;50345;51.136;16.886;2023-05-13T11:21:16;3.53;;;3.33;;
6955;SDS011;50345;51.136;16.886;2023-05-13T11:23:56;8.67;;;7.77;;
6955;SDS011;50345;51.136;16.886;2023-05-13T11:26:24;10.93;;;9.83;;
6955;SDS011;50345;51.136;16.886;2023-05-13T11:29:05;5.23;;;4.83;;
6955;SDS011;50345;51.136;16.886;2023-05-13T11:31:45;3.57;;;3.27;;
6955;SDS011;50345;51.136;16.886;2023-05-13T11:34:15;3.00;;;2.80;;
6955;SDS011;50345;51.136;16.886;2023-05-13T11:36:46;3.83;;;3.43;;
6955;SDS011;50345;51.136;16.886;2023-05-13T11:39:27;12.70;;;9.70;;
6955;SDS011;50345;51.136;16.886;2023-05-13T11:41:53;4.87;;;4.03;;
6955;SDS011;50345;51.136;16.886;2023-05-13T11:44:21;5.73;;;4.17;;
6955;SDS011;50345;51.136;16.886;2023-05-13T11:46:52;10.17;;;8.77;;
6955;SDS011;50345;51.136;16.886;2023-05-13T11:51:59;5.60;;;3.60;;
6955;SDS011;50345;51.136;16.886;2023-05-13T11:54:26;6.00;;;3.50;;
6955;SDS011;50345;51.136;16.886;2023-05-13T11:56:52;9.03;;;5.20;;
6955;SDS011;50345;51.136;16.886;2023-05-13T11:59:18;4.73;;;3.67;;
6955;SDS011;50345;51.136;16.886;2023-05-13T12:01:44;4.97;;;2.80;;
6955;SDS011;50345;51.136;16.886;2023-05-13T12:04:09;7.53;;;3.97;;
6955;SDS011;50345;51.136;16.886;2023-05-13T12:06:41;4.73;;;4.33;;
6955;SDS011;50345;51.136;16.886;2023-05-13T12:09:10;3.97;;;3.57;;
6955;SDS011;50345;51.136;16.886;2023-05-13T12:11:36;4.17;;;3.83;;
6955;SDS011;50345;51.136;16.886;2023-05-13T12:14:03;8.83;;;6.30;;
6955;SDS011;50345;51.136;16.886;2023-05-13T12:16:29;5.90;;;4.10;;
6955;SDS011;50345;51.136;16.886;2023-05-13T12:18:58;8.80;;;6.63;;
6955;SDS011;50345;51.136;16.886;2023-05-13T12:21:30;3.30;;;2.67;;
6955;SDS011;50345;51.136;16.886;2023-05-13T12:23:56;3.23;;;2.67;;
6955;SDS011;50345;51.136;16.886;2023-05-13T12:26:22;4.30;;;2.70;;
6955;SDS011;50345;51.136;16.886;2023-05-13T12:28:54;3.77;;;3.40;;
6955;SDS011;50345;51.136;16.886;2023-05-13T12:31:21;7.80;;;3.13;;
6955;SDS011;50345;51.136;16.886;2023-05-13T12:33:47;4.10;;;3.13;;
6955;SDS011;50345;51.136;16.886;2023-05-13T12:36:14;5.47;;;3.50;;
6955;SDS011;50345;51.136;16.886;2023-05-13T12:38:56;3.80;;;3.40;;
6955;SDS011;50345;51.136;16.886;2023-05-13T12:41:24;7.03;;;4.13;;
6955;SDS011;50345;51.136;16.886;2023-05-13T12:43:56;7.70;;;7.00;;
6955;SDS011;50345;51.136;16.886;2023-05-13T12:46:26;10.10;;;7.80;;
6955;SDS011;50345;51.136;16.886;2023-05-13T12:48:56;8.77;;;7.60;;
6955;SDS011;50345;51.136;16.886;2023-05-13T12:51:23;9.20;;;4.70;;
6955;SDS011;50345;51.136;16.886;2023-05-13T12:53:49;5.00;;;4.50;;
6955;SDS011;50345;51.136;16.886;2023-05-13T12:56:17;4.67;;;3.40;;
6955;SDS011;50345;51.136;16.886;2023-05-13T12:58:47;4.07;;;3.80;;
6955;SDS011;50345;51.136;16.886;2023-05-13T13:01:19;3.93;;;2.90;;
6955;SDS011;50345;51.136;16.886;2023-05-13T13:03:45;5.67;;;2.57;;
6955;SDS011;50345;51.136;16.886;2023-05-13T13:06:11;5.23;;;2.70;;
6955;SDS011;50345;51.136;16.886;2023-05-13T13:08:37;5.67;;;3.83;;
6955;SDS011;50345;51.136;16.886;2023-05-13T13:11:03;8.00;;;4.57;;
6955;SDS011;50345;51.136;16.886;2023-05-13T13:13:30;5.27;;;2.50;;
6955;SDS011;50345;51.136;16.886;2023-05-13T13:15:56;2.87;;;2.63;;
6955;SDS011;50345;51.136;16.886;2023-05-13T13:18:22;5.23;;;3.07;;
6955;SDS011;50345;51.136;16.886;2023-05-13T13:20:49;7.30;;;3.30;;
6955;SDS011;50345;51.136;16.886;2023-05-13T13:23:15;4.40;;;3.20;;
6955;SDS011;50345;51.136;16.886;2023-05-13T13:25:41;6.07;;;3.30;;
6955;SDS011;50345;51.136;16.886;2023-05-13T13:28:07;3.43;;;2.90;;
6955;SDS011;50345;51.136;16.886;2023-05-13T13:30:33;4.33;;;2.60;;
6955;SDS011;50345;51.136;16.886;2023-05-13T13:32:58;4.27;;;3.27;;
6955;SDS011;50345;51.136;16.886;2023-05-13T13:35:24;6.40;;;3.20;;
6955;SDS011;50345;51.136;16.886;2023-05-13T13:37:49;5.13;;;3.27;;
6955;SDS011;50345;51.136;16.886;2023-05-13T13:40:15;3.70;;;2.77;;
6955;SDS011;50345;51.136;16.886;2023-05-13T13:42:42;8.63;;;4.47;;
6955;SDS011;50345;51.136;16.886;2023-05-13T13:45:08;5.73;;;3.13;;
6955;SDS011;50345;51.136;16.886;2023-05-13T13:47:34;6.23;;;3.20;;
6955;SDS011;50345;51.136;16.886;2023-05-13T13:49:59;4.50;;;3.53;;
6955;SDS011;50345;51.136;16.886;2023-05-13T13:52:25;3.10;;;2.90;;
6955;SDS011;50345;51.136;16.886;2023-05-13T13:54:52;3.40;;;3.10;;
6955;SDS011;50345;51.136;16.886;2023-05-13T13:57:18;3.63;;;3.17;;
6955;SDS011;50345;51.136;16.886;2023-05-13T13:59:44;4.00;;;3.70;;
6955;SDS011;50345;51.136;16.886;2023-05-13T14:02:09;5.67;;;3.20;;
6955;SDS011;50345;51.136;16.886;2023-05-13T14:04:35;4.50;;;4.20;;
6955;SDS011;50345;51.136;16.886;2023-05-13T14:07:00;4.13;;;3.73;;
6955;SDS011;50345;51.136;16.886;2023-05-13T14:09:26;7.17;;;3.90;;
6955;SDS011;50345;51.136;16.886;2023-05-13T14:11:52;4.57;;;3.60;;
6955;SDS011;50345;51.136;16.886;2023-05-13T14:14:17;4.23;;;3.93;;
6955;SDS011;50345;51.136;16.886;2023-05-13T14:16:43;5.10;;;3.90;;
6955;SDS011;50345;51.136;16.886;2023-05-13T14:19:09;3.97;;;3.50;;
6955;SDS011;50345;51.136;16.886;2023-05-13T14:21:35;6.27;;;3.63;;
6955;SDS011;50345;51.136;16.886;2023-05-13T14:24:01;3.80;;;3.50;;
6955;SDS011;50345;51.136;16.886;2023-05-13T14:26:26;3.60;;;3.10;;
6955;SDS011;50345;51.136;16.886;2023-05-13T14:28:53;4.40;;;4.10;;
6955;SDS011;50345;51.136;16.886;2023-05-13T14:31:18;5.20;;;3.40;;
6955;SDS011;50345;51.136;16.886;2023-05-13T14:33:44;3.90;;;3.53;;
6955;SDS011;50345;51.136;16.886;2023-05-13T14:36:10;4.90;;;4.50;;
6955;SDS011;50345;51.136;16.886;2023-05-13T14:38:39;5.20;;;3.30;;
6955;SDS011;50345;51.136;16.886;2023-05-13T14:41:06;3.40;;;3.10;;
6955;SDS011;50345;51.136;16.886;2023-05-13T14:43:32;5.43;;;3.60;;
6955;SDS011;50345;51.136;16.886;2023-05-13T14:45:57;4.33;;;3.60;;
6955;SDS011;50345;51.136;16.886;2023-05-13T14:48:23;5.00;;;4.07;;
6955;SDS011;50345;51.136;16.886;2023-05-13T14:50:48;4.03;;;3.30;;
6955;SDS011;50345;51.136;16.886;2023-05-13T14:53:14;6.80;;;4.00;;
6955;SDS011;50345;51.136;16.886;2023-05-13T14:55:40;4.83;;;3.87;;
6955;SDS011;50345;51.136;16.886;2023-05-13T14:58:05;4.23;;;3.83;;
6955;SDS011;50345;51.136;16.886;2023-05-13T15:00:33;4.37;;;3.97;;
6955;SDS011;50345;51.136;16.886;2023-05-13T15:03:01;6.10;;;5.03;;